createdAt,value
2022-12-18T00:00:58.120Z,65.72
2022-12-18T00:06:18.512Z,51.42
2022-12-18T00:11:23.839Z,52.53
2022-12-18T00:16:29.081Z,54.07
2022-12-18T00:21:33.489Z,56.93
2022-12-18T00:26:38.341Z,62.84
2022-12-18T00:31:42.789Z,70.81
2022-12-18T00:36:48.583Z,58.46
2022-12-18T00:42:09.573Z,53.15
2022-12-18T00:47:12.281Z,56.79
2022-12-18T00:52:14.965Z,59.03
2022-12-18T00:57:17.675Z,62.76
2022-12-18T01:02:20.647Z,71.10
2022-12-18T01:07:23.683Z,61.17
2022-12-18T01:12:26.441Z,50.48
2022-12-18T01:17:29.246Z,50.35
2022-12-18T01:22:32.009Z,53.21
2022-12-18T01:27:35.099Z,61.07
2022-12-18T01:32:37.888Z,69.70
2022-12-18T01:37:40.634Z,60.71
2022-12-18T01:42:43.320Z,50.67
2022-12-18T01:47:49.793Z,54.40
2022-12-18T01:53:01.080Z,57.73
2022-12-18T01:58:04.807Z,64.67
2022-12-18T02:03:07.558Z,66.91
2022-12-18T02:08:20.416Z,53.84
2022-12-18T02:13:39.560Z,49.90
2022-12-18T02:18:48.335Z,55.05
2022-12-18T02:23:58.139Z,59.69
2022-12-18T02:29:11.371Z,71.26
2022-12-18T02:34:15.323Z,64.03
2022-12-18T02:39:18.899Z,51.83
2022-12-18T02:44:21.617Z,53.44
2022-12-18T02:49:42.202Z,57.15
2022-12-18T02:54:51.435Z,63.90
2022-12-18T03:00:19.918Z,70.39
2022-12-18T03:05:33.847Z,58.55
2022-12-18T03:10:46.553Z,52.65
2022-12-18T03:15:51.964Z,53.08
2022-12-18T03:20:58.697Z,58.28
2022-12-18T03:26:08.105Z,67.13
2022-12-18T03:31:13.977Z,68.72
2022-12-18T03:36:16.786Z,54.99
2022-12-18T03:41:19.419Z,50.35
2022-12-18T03:46:38.150Z,55.32
2022-12-18T03:51:54.378Z,67.29
2022-12-18T03:57:07.801Z,56.16
2022-12-18T04:02:11.394Z,50.86
2022-12-18T04:07:15.061Z,53.33
2022-12-18T04:12:17.758Z,64.01
2022-12-18T04:17:20.996Z,68.02
2022-12-18T04:22:23.782Z,58.74
2022-12-18T04:27:26.467Z,52.82
2022-12-18T04:32:29.166Z,55.58
2022-12-18T04:37:31.880Z,58.75
2022-12-18T04:42:34.709Z,62.11
2022-12-18T04:47:37.451Z,72.30
2022-12-18T04:52:40.204Z,60.50
2022-12-18T04:57:42.935Z,48.86
2022-12-18T05:02:46.134Z,50.36
2022-12-18T05:07:49.505Z,52.99
2022-12-18T05:13:01.204Z,54.43
2022-12-18T05:18:05.262Z,57.44
2022-12-18T05:23:08.046Z,71.56
2022-12-18T05:28:10.737Z,67.12
2022-12-18T05:33:13.546Z,54.68
2022-12-18T05:38:16.241Z,51.35
2022-12-18T05:43:21.614Z,54.30
2022-12-18T05:48:24.989Z,59.79
2022-12-18T05:53:27.721Z,71.68
2022-12-18T05:58:31.492Z,65.12
2022-12-18T06:03:34.424Z,52.16
2022-12-18T06:08:41.470Z,52.06
2022-12-18T06:13:57.672Z,58.13
2022-12-18T06:19:05.056Z,66.76
2022-12-18T06:24:08.081Z,54.23
2022-12-18T06:29:10.831Z,53.03
2022-12-18T06:34:13.582Z,54.28
2022-12-18T06:39:16.263Z,56.92
2022-12-18T06:44:19.185Z,63.30
2022-12-18T06:49:24.154Z,71.59
2022-12-18T06:54:30.522Z,62.65
2022-12-18T06:59:33.323Z,53.18
2022-12-18T07:04:36.125Z,54.36
2022-12-18T07:09:38.812Z,63.69
2022-12-18T07:14:41.521Z,62.79
2022-12-18T07:19:44.363Z,51.82
2022-12-18T07:24:47.125Z,54.07
2022-12-18T07:29:50.030Z,65.20
2022-12-18T07:34:52.773Z,61.92
2022-12-18T07:39:55.634Z,53.42
2022-12-18T07:45:02.556Z,52.14
2022-12-18T07:50:06.521Z,58.37
2022-12-18T07:55:09.669Z,66.36
2022-12-18T08:00:13.442Z,63.42
2022-12-18T08:05:16.197Z,51.10
2022-12-18T08:10:19.701Z,55.08
2022-12-18T08:15:22.712Z,64.07
2022-12-18T08:20:25.414Z,61.67
2022-12-18T08:25:28.165Z,55.12
2022-12-18T08:30:30.956Z,64.95
2022-12-18T08:35:42.473Z,61.71
2022-12-18T08:40:48.237Z,48.52
2022-12-18T08:45:51.454Z,53.04
2022-12-18T08:50:56.238Z,58.65
2022-12-18T08:55:59.052Z,68.14
2022-12-18T09:01:03.179Z,54.22
2022-12-18T09:06:07.312Z,56.12
2022-12-18T09:11:22.421Z,62.18
2022-12-18T09:16:31.699Z,62.17
2022-12-18T09:21:37.150Z,54.18
2022-12-18T09:26:40.641Z,58.47
2022-12-18T09:31:46.305Z,65.79
2022-12-18T09:36:49.422Z,64.16
2022-12-18T09:41:56.680Z,49.89
2022-12-18T09:46:59.374Z,51.36
2022-12-18T09:52:28.722Z,61.62
2022-12-18T09:57:35.576Z,57.83
2022-12-18T10:02:38.332Z,56.88
2022-12-18T10:08:00.575Z,64.83
2022-12-18T10:13:06.034Z,55.86
2022-12-18T10:18:50.135Z,56.67
2022-12-18T10:24:14.470Z,63.01
2022-12-18T10:29:17.994Z,56.18
2022-12-18T10:34:20.696Z,57.93
2022-12-18T10:39:26.624Z,65.77
2022-12-18T10:44:29.328Z,56.89
2022-12-18T10:49:36.227Z,50.16
2022-12-18T10:54:39.016Z,58.35
2022-12-18T10:59:56.518Z,65.28
2022-12-18T11:04:59.332Z,52.50
2022-12-18T11:10:02.663Z,55.66
2022-12-18T11:15:07.152Z,56.08
2022-12-18T11:20:42.685Z,61.09
2022-12-18T11:25:54.706Z,47.44
2022-12-18T11:31:20.616Z,53.94
2022-12-18T11:36:24.621Z,55.29
2022-12-18T11:41:57.493Z,56.14
2022-12-18T11:47:26.836Z,55.43
2022-12-18T11:52:39.841Z,53.95
2022-12-18T11:58:31.577Z,57.17
2022-12-18T12:03:52.458Z,56.84
2022-12-18T12:09:17.355Z,53.80
2022-12-18T12:14:33.452Z,54.80
2022-12-18T12:19:39.533Z,52.55
2022-12-18T12:24:44.938Z,53.88
2022-12-18T12:29:50.476Z,53.11
2022-12-18T12:35:17.325Z,50.82
2022-12-18T12:40:50.286Z,52.47
2022-12-18T12:45:50.222Z,51.14
2022-12-18T12:50:54.621Z,51.43
2022-12-18T12:55:58.532Z,52.80
2022-12-18T13:01:23.321Z,54.47
2022-12-18T13:07:02.611Z,55.05
2022-12-18T13:12:34.865Z,56.15
2022-12-18T13:17:38.230Z,56.73
2022-12-18T13:22:47.653Z,57.75
2022-12-18T13:28:15.780Z,58.43
2022-12-18T13:33:18.681Z,58.80
2022-12-18T13:38:31.904Z,58.80
2022-12-18T13:43:47.637Z,60.08
2022-12-18T13:49:05.521Z,60.29
2022-12-18T13:54:40.429Z,61.41
2022-12-18T13:59:43.129Z,61.57
2022-12-18T14:04:47.855Z,63.99
2022-12-18T14:10:06.457Z,67.19
2022-12-18T14:15:32.392Z,49.64
2022-12-18T14:20:36.253Z,52.31
2022-12-18T14:25:38.906Z,55.82
2022-12-18T14:30:43.808Z,59.59
2022-12-18T14:36:01.686Z,67.24
2022-12-18T14:41:07.817Z,55.61
2022-12-18T14:46:29.451Z,57.43
2022-12-18T14:51:35.424Z,62.15
2022-12-18T14:56:45.711Z,63.02
2022-12-18T15:02:02.982Z,56.63
2022-12-18T15:07:24.079Z,62.46
2022-12-18T15:12:43.745Z,62.53
2022-12-18T15:17:46.486Z,53.86
2022-12-18T15:22:49.255Z,56.42
2022-12-18T15:27:52.009Z,63.21
2022-12-18T15:33:23.938Z,57.41
2022-12-18T15:38:27.746Z,57.46
2022-12-18T15:43:37.681Z,64.56
2022-12-18T15:48:55.503Z,61.32
2022-12-18T15:54:05.895Z,53.20
2022-12-18T15:59:17.419Z,58.33
2022-12-18T16:04:22.245Z,66.21
2022-12-18T16:09:26.601Z,56.61
2022-12-18T16:14:31.344Z,53.64
2022-12-18T16:19:34.346Z,62.41
2022-12-18T16:24:37.363Z,64.75
2022-12-18T16:29:40.230Z,55.27
2022-12-18T16:34:44.708Z,60.87
2022-12-18T16:39:47.416Z,64.74
2022-12-18T16:44:50.663Z,56.60
2022-12-18T16:49:54.214Z,57.81
2022-12-18T16:54:57.373Z,62.65
2022-12-18T17:00:05.120Z,56.61
2022-12-18T17:05:08.633Z,61.35
2022-12-18T17:10:11.461Z,64.14
2022-12-18T17:15:14.263Z,54.30
2022-12-18T17:20:16.996Z,56.07
2022-12-18T17:25:22.427Z,62.70
2022-12-18T17:30:26.863Z,55.36
2022-12-18T17:35:30.590Z,60.38
2022-12-18T17:40:33.672Z,62.24
2022-12-18T17:45:40.397Z,55.88
2022-12-18T17:50:43.087Z,62.78
2022-12-18T17:55:55.646Z,58.01
2022-12-18T18:00:58.548Z,55.85
2022-12-18T18:06:02.569Z,63.53
2022-12-18T18:11:34.947Z,56.80
2022-12-18T18:16:47.537Z,57.55
2022-12-18T18:21:52.766Z,65.60
2022-12-18T18:26:56.567Z,61.65
2022-12-18T18:31:59.948Z,53.44
2022-12-18T18:37:03.096Z,55.69
2022-12-18T18:42:05.885Z,60.32
2022-12-18T18:47:09.657Z,69.33
2022-12-18T18:52:12.623Z,57.74
2022-12-18T18:57:20.961Z,48.95
2022-12-18T19:02:24.717Z,51.03
2022-12-18T19:07:30.599Z,51.37
2022-12-18T19:12:53.619Z,53.73
2022-12-18T19:17:56.333Z,58.03
2022-12-18T19:22:59.361Z,68.72
2022-12-18T19:28:02.046Z,65.21
2022-12-18T19:33:33.981Z,49.48
2022-12-18T19:38:30.341Z,47.96
2022-12-18T19:43:36.138Z,50.61
2022-12-18T19:48:39.111Z,51.77
2022-12-18T19:53:42.245Z,54.74
2022-12-18T19:58:45.855Z,61.10
2022-12-18T20:03:52.621Z,68.11
2022-12-18T20:09:01.183Z,57.18
2022-12-18T20:14:05.143Z,50.03
2022-12-18T20:19:08.953Z,45.75
2022-12-18T20:24:13.013Z,42.77
2022-12-18T20:29:15.766Z,38.93
2022-12-18T20:34:18.997Z,42.98
2022-12-18T20:39:22.277Z,44.17
2022-12-18T20:44:26.137Z,46.26
2022-12-18T20:49:29.648Z,51.48
2022-12-18T20:54:32.425Z,53.01
2022-12-18T20:59:35.170Z,63.71
2022-12-18T21:04:37.844Z,50.47
2022-12-18T21:09:40.741Z,45.30
2022-12-18T21:14:44.789Z,42.18
2022-12-18T21:19:47.478Z,39.56
2022-12-18T21:24:52.182Z,37.80
2022-12-18T21:29:54.980Z,42.23
2022-12-18T21:34:57.829Z,42.78
2022-12-18T21:40:00.530Z,44.01
2022-12-18T21:45:03.841Z,49.72
2022-12-18T21:50:07.165Z,57.08
2022-12-18T21:55:10.631Z,59.14
2022-12-18T22:00:18.589Z,46.99
2022-12-18T22:05:23.447Z,42.14
2022-12-18T22:10:26.149Z,40.05
2022-12-18T22:15:28.863Z,36.68
2022-12-18T22:20:31.846Z,40.84
2022-12-18T22:25:36.492Z,44.49
2022-12-18T22:30:42.812Z,48.45
2022-12-18T22:35:45.639Z,52.50
2022-12-18T22:40:48.853Z,60.87
2022-12-18T22:45:51.883Z,56.78
2022-12-18T22:50:58.504Z,46.35
2022-12-18T22:56:02.515Z,41.31
2022-12-18T23:01:06.233Z,37.48
2022-12-18T23:06:09.553Z,35.34
2022-12-18T23:11:13.668Z,40.59
2022-12-18T23:16:20.297Z,42.87
2022-12-18T23:21:24.304Z,45.79
2022-12-18T23:26:28.661Z,53.27
2022-12-18T23:31:37.526Z,58.00
2022-12-18T23:36:45.427Z,47.79
2022-12-18T23:41:49.547Z,44.76
2022-12-18T23:46:53.025Z,39.99
2022-12-18T23:51:56.136Z,38.58
2022-12-18T23:56:59.073Z,35.99
